createdAt,value
2018-01-27T00:00:13.551Z,80.73
2018-01-27T00:02:41.828Z,80.78
2018-01-27T00:05:10.157Z,80.79
2018-01-27T00:07:38.411Z,80.56
2018-01-27T00:10:06.712Z,80.06
2018-01-27T00:12:34.979Z,80.21
2018-01-27T00:15:03.313Z,80.26
2018-01-27T00:17:31.654Z,81.44
2018-01-27T00:20:00.173Z,81.85
2018-01-27T00:22:28.470Z,82.48
2018-01-27T00:24:56.778Z,82.30
2018-01-27T00:27:25.095Z,81.36
2018-01-27T00:29:53.383Z,81.18
2018-01-27T00:32:21.679Z,80.87
2018-01-27T00:34:49.951Z,80.72
2018-01-27T00:37:18.260Z,80.66
2018-01-27T00:39:46.521Z,81.09
2018-01-27T00:42:14.780Z,81.04
2018-01-27T00:44:43.058Z,80.98
2018-01-27T00:47:11.336Z,80.91
2018-01-27T00:49:40.542Z,80.93
2018-01-27T00:52:08.808Z,80.98
2018-01-27T00:54:37.115Z,80.92
2018-01-27T00:57:06.234Z,80.90
2018-01-27T00:59:34.555Z,81.13
2018-01-27T01:02:02.832Z,81.52
2018-01-27T01:04:31.219Z,81.47
2018-01-27T01:06:59.494Z,81.55
2018-01-27T01:09:27.783Z,81.71
2018-01-27T01:11:56.076Z,82.10
2018-01-27T01:14:24.339Z,82.37
2018-01-27T01:16:52.646Z,82.70
2018-01-27T01:19:20.948Z,82.41
2018-01-27T01:21:49.266Z,82.08
2018-01-27T01:24:17.531Z,81.92
2018-01-27T01:26:46.423Z,81.91
2018-01-27T01:29:14.736Z,81.75
2018-01-27T01:31:43.020Z,82.18
2018-01-27T01:34:11.291Z,82.69
2018-01-27T01:36:39.606Z,82.72
2018-01-27T01:39:07.913Z,82.36
2018-01-27T01:41:36.181Z,82.30
2018-01-27T01:44:10.470Z,82.12
2018-01-27T01:46:38.739Z,82.36
2018-01-27T01:49:19.040Z,82.83
2018-01-27T01:51:47.268Z,82.03
2018-01-27T01:54:15.575Z,81.45
2018-01-27T01:56:43.868Z,80.95
2018-01-27T01:59:12.149Z,81.83
2018-01-27T02:01:40.427Z,82.20
2018-01-27T02:04:08.703Z,82.35
2018-01-27T02:06:36.990Z,82.42
2018-01-27T02:09:05.266Z,82.29
2018-01-27T02:11:33.580Z,82.72
2018-01-27T02:14:01.855Z,83.16
2018-01-27T02:16:30.164Z,82.64
2018-01-27T02:18:58.464Z,83.01
2018-01-27T02:21:26.778Z,83.33
2018-01-27T02:23:55.049Z,82.74
2018-01-27T02:26:23.366Z,83.12
2018-01-27T02:28:52.871Z,82.95
2018-01-27T02:31:21.157Z,82.50
2018-01-27T02:33:49.496Z,82.28
2018-01-27T02:36:17.751Z,82.00
2018-01-27T02:38:46.051Z,81.70
2018-01-27T02:41:14.328Z,80.26
2018-01-27T02:43:42.670Z,80.01
2018-01-27T02:46:11.030Z,79.75
2018-01-27T02:48:39.353Z,79.88
2018-01-27T02:51:07.618Z,79.93
2018-01-27T02:53:35.929Z,79.96
2018-01-27T02:56:04.882Z,79.96
2018-01-27T02:58:33.151Z,79.39
2018-01-27T03:01:01.448Z,79.19
2018-01-27T03:03:29.735Z,79.47
2018-01-27T03:05:58.036Z,80.40
2018-01-27T03:08:26.319Z,81.24
2018-01-27T03:10:54.651Z,81.36
2018-01-27T03:13:22.922Z,81.40
2018-01-27T03:15:51.218Z,81.93
2018-01-27T03:18:19.523Z,82.67
2018-01-27T03:20:47.815Z,83.17
2018-01-27T03:23:16.102Z,83.18
2018-01-27T03:25:44.378Z,82.64
2018-01-27T03:28:12.994Z,82.28
2018-01-27T03:30:41.271Z,82.25
2018-01-27T03:33:09.611Z,82.04
2018-01-27T03:35:37.852Z,81.71
2018-01-27T03:38:06.154Z,81.28
2018-01-27T03:40:34.423Z,80.52
2018-01-27T03:43:02.731Z,80.77
2018-01-27T03:45:31.004Z,80.78
2018-01-27T03:47:59.321Z,80.75
2018-01-27T03:50:27.610Z,81.32
2018-01-27T03:52:55.898Z,82.18
2018-01-27T03:55:24.162Z,82.49
2018-01-27T03:57:52.527Z,82.62
2018-01-27T04:00:20.815Z,83.17
2018-01-27T04:02:49.079Z,82.76
2018-01-27T04:05:17.374Z,83.19
2018-01-27T04:07:45.647Z,84.02
2018-01-27T04:10:13.934Z,84.46
2018-01-27T04:12:42.196Z,85.17
2018-01-27T04:15:10.492Z,85.74
2018-01-27T04:17:38.770Z,86.03
2018-01-27T04:20:07.055Z,86.40
2018-01-27T04:22:35.347Z,85.96
2018-01-27T04:25:03.619Z,85.70
2018-01-27T04:27:31.931Z,85.18
2018-01-27T04:30:00.752Z,84.85
2018-01-27T04:32:29.044Z,84.60
2018-01-27T04:34:57.338Z,84.30
2018-01-27T04:37:25.618Z,84.12
2018-01-27T04:39:53.903Z,83.55
2018-01-27T04:42:23.098Z,83.49
2018-01-27T04:44:51.398Z,83.34
2018-01-27T04:47:19.687Z,83.06
2018-01-27T04:49:48.003Z,83.56
2018-01-27T04:52:16.284Z,83.11
2018-01-27T04:54:44.589Z,82.76
2018-01-27T04:57:12.850Z,82.55
2018-01-27T04:59:41.173Z,82.21
2018-01-27T05:02:09.483Z,82.01
2018-01-27T05:04:37.796Z,83.37
2018-01-27T05:07:06.104Z,84.27
2018-01-27T05:09:34.409Z,84.37
2018-01-27T05:12:02.706Z,84.45
2018-01-27T05:14:30.987Z,85.24
2018-01-27T05:16:59.308Z,84.92
2018-01-27T05:19:27.630Z,84.89
2018-01-27T05:21:55.907Z,84.84
2018-01-27T05:24:24.203Z,85.20
2018-01-27T05:26:52.471Z,86.10
2018-01-27T05:29:20.804Z,85.64
2018-01-27T05:31:49.119Z,85.23
2018-01-27T05:34:17.442Z,84.74
2018-01-27T05:36:45.739Z,84.51
2018-01-27T05:39:14.041Z,84.44
2018-01-27T05:41:42.350Z,84.94
2018-01-27T05:44:10.622Z,85.35
2018-01-27T05:46:38.947Z,84.75
2018-01-27T05:49:08.144Z,84.50
2018-01-27T05:51:36.450Z,83.99
2018-01-27T05:54:04.733Z,83.70
2018-01-27T05:56:33.039Z,83.23
2018-01-27T05:59:01.320Z,83.67
2018-01-27T06:01:29.624Z,83.28
2018-01-27T06:03:57.911Z,82.71
2018-01-27T06:06:26.223Z,83.50
2018-01-27T06:08:54.508Z,83.60
2018-01-27T06:11:22.801Z,83.22
2018-01-27T06:13:51.095Z,83.69
2018-01-27T06:16:19.425Z,83.20
2018-01-27T06:18:47.695Z,83.10
2018-01-27T06:21:16.011Z,82.94
2018-01-27T06:23:44.283Z,83.13
2018-01-27T06:26:12.554Z,84.03
2018-01-27T06:28:40.839Z,83.78
2018-01-27T06:31:09.110Z,83.82
2018-01-27T06:33:37.461Z,84.38
2018-01-27T06:36:05.761Z,83.86
2018-01-27T06:38:34.126Z,83.17
2018-01-27T06:41:02.395Z,83.16
2018-01-27T06:43:30.727Z,82.96
2018-01-27T06:45:59.059Z,82.56
2018-01-27T06:48:27.343Z,82.74
2018-01-27T06:50:56.208Z,82.07
2018-01-27T06:53:24.497Z,82.18
2018-01-27T06:55:52.840Z,82.05
2018-01-27T06:58:21.054Z,82.33
2018-01-27T07:00:49.403Z,81.73
2018-01-27T07:03:17.694Z,82.12
2018-01-27T07:05:46.004Z,82.53
2018-01-27T07:08:14.273Z,82.77
2018-01-27T07:10:42.582Z,82.80
2018-01-27T07:13:10.875Z,81.40
2018-01-27T07:15:39.172Z,81.61
2018-01-27T07:18:07.505Z,82.33
2018-01-27T07:20:35.775Z,82.70
2018-01-27T07:23:05.118Z,82.29
2018-01-27T07:25:33.368Z,82.13
2018-01-27T07:28:01.684Z,82.11
2018-01-27T07:30:29.962Z,82.32
2018-01-27T07:32:58.291Z,81.60
2018-01-27T07:35:26.618Z,81.37
2018-01-27T07:37:54.905Z,82.01
2018-01-27T07:40:23.211Z,81.48
2018-01-27T07:42:51.561Z,82.12
2018-01-27T07:45:19.835Z,81.95
2018-01-27T07:47:48.136Z,82.17
2018-01-27T07:50:16.438Z,80.85
2018-01-27T07:52:44.767Z,81.75
2018-01-27T07:55:13.091Z,82.08
2018-01-27T07:57:41.422Z,81.74
2018-01-27T08:00:09.725Z,81.45
2018-01-27T08:02:38.017Z,80.96
2018-01-27T08:05:06.284Z,81.20
2018-01-27T08:07:34.608Z,81.13
2018-01-27T08:10:02.884Z,81.72
2018-01-27T08:12:31.193Z,81.81
2018-01-27T08:14:59.522Z,81.79
2018-01-27T08:17:27.770Z,82.54
2018-01-27T08:19:56.144Z,83.57
2018-01-27T08:22:24.380Z,84.34
2018-01-27T08:24:52.676Z,83.94
2018-01-27T08:27:21.178Z,83.22
2018-01-27T08:29:49.919Z,82.76
2018-01-27T08:32:18.267Z,83.08
2018-01-27T08:34:46.618Z,83.10
2018-01-27T08:37:15.859Z,84.11
2018-01-27T08:39:44.135Z,85.39
2018-01-27T08:42:12.471Z,84.67
2018-01-27T08:44:40.703Z,84.44
2018-01-27T08:47:09.018Z,84.57
2018-01-27T08:49:37.290Z,84.78
2018-01-27T08:52:05.628Z,85.64
2018-01-27T08:54:33.913Z,85.34
2018-01-27T08:57:02.222Z,85.39
2018-01-27T08:59:30.530Z,85.02
2018-01-27T09:01:58.861Z,84.09
2018-01-27T09:04:27.155Z,84.66
2018-01-27T09:06:55.430Z,85.15
2018-01-27T09:09:24.290Z,85.07
2018-01-27T09:11:52.692Z,85.40
2018-01-27T09:14:21.012Z,85.62
2018-01-27T09:16:49.476Z,85.14
2018-01-27T09:19:17.679Z,84.65
2018-01-27T09:21:45.987Z,84.55
2018-01-27T09:24:14.255Z,84.35
2018-01-27T09:26:42.556Z,83.92
2018-01-27T09:29:10.872Z,83.83
2018-01-27T09:31:39.163Z,83.49
2018-01-27T09:34:07.584Z,83.13
2018-01-27T09:36:35.913Z,82.07
2018-01-27T09:39:04.210Z,80.52
2018-01-27T09:41:33.458Z,79.16
2018-01-27T09:44:01.771Z,79.47
2018-01-27T09:46:30.081Z,78.54
2018-01-27T09:48:59.393Z,78.10
2018-01-27T09:51:27.712Z,78.48
2018-01-27T09:53:56.005Z,79.99
2018-01-27T09:56:24.270Z,81.34
2018-01-27T09:58:52.559Z,82.41
2018-01-27T10:01:20.871Z,82.53
2018-01-27T10:03:49.146Z,82.82
2018-01-27T10:06:17.497Z,82.64
2018-01-27T10:08:45.763Z,82.91
2018-01-27T10:11:14.061Z,82.33
2018-01-27T10:13:42.378Z,83.15
2018-01-27T10:16:10.666Z,81.89
2018-01-27T10:18:38.975Z,81.46
2018-01-27T10:21:07.318Z,80.59
2018-01-27T10:23:35.619Z,79.57
2018-01-27T10:26:03.902Z,79.44
2018-01-27T10:28:32.161Z,78.70
2018-01-27T10:31:00.648Z,78.56
2018-01-27T10:33:28.908Z,78.52
2018-01-27T10:35:57.205Z,79.07
2018-01-27T10:38:25.487Z,79.51
2018-01-27T10:40:53.823Z,79.04
2018-01-27T10:43:22.125Z,79.36
2018-01-27T10:45:50.407Z,79.41
2018-01-27T10:48:18.744Z,79.24
2018-01-27T10:50:47.103Z,79.58
2018-01-27T10:53:16.032Z,79.04
2018-01-27T10:55:44.346Z,78.46
2018-01-27T10:58:13.192Z,78.21
2018-01-27T11:00:41.518Z,78.52
2018-01-27T11:03:09.865Z,78.40
2018-01-27T11:05:38.141Z,78.69
2018-01-27T11:08:06.506Z,78.54
2018-01-27T11:10:34.786Z,78.89
2018-01-27T11:13:03.111Z,77.95
2018-01-27T11:15:31.383Z,78.95
2018-01-27T11:17:59.695Z,78.94
2018-01-27T11:20:28.019Z,78.85
2018-01-27T11:22:56.344Z,78.73
2018-01-27T11:25:24.618Z,78.67
2018-01-27T11:27:52.922Z,79.10
2018-01-27T11:30:21.224Z,78.80
2018-01-27T11:32:49.507Z,78.47
2018-01-27T11:35:17.823Z,78.69
2018-01-27T11:37:46.952Z,78.87
2018-01-27T11:40:15.475Z,78.08
2018-01-27T11:42:43.781Z,78.11
2018-01-27T11:45:12.135Z,78.50
2018-01-27T11:47:40.407Z,78.68
2018-01-27T11:50:08.853Z,78.57
2018-01-27T11:52:37.100Z,78.81
2018-01-27T11:55:06.494Z,78.45
2018-01-27T11:57:36.478Z,78.46
2018-01-27T12:00:04.919Z,78.71
2018-01-27T12:02:33.247Z,78.93
2018-01-27T12:05:01.650Z,79.13
2018-01-27T12:07:29.938Z,79.12
2018-01-27T12:10:00.152Z,78.63
2018-01-27T12:12:30.775Z,79.26
2018-01-27T12:14:59.062Z,79.72
2018-01-27T12:17:27.415Z,79.45
2018-01-27T12:19:55.729Z,79.95
2018-01-27T12:22:24.806Z,80.40
2018-01-27T12:24:53.175Z,80.46
2018-01-27T12:27:21.452Z,80.85
2018-01-27T12:29:49.796Z,81.03
2018-01-27T12:32:19.065Z,80.76
2018-01-27T12:34:47.330Z,80.84
2018-01-27T12:37:15.676Z,80.33
2018-01-27T12:39:43.938Z,79.49
2018-01-27T12:42:13.540Z,79.56
2018-01-27T12:44:41.816Z,79.92
2018-01-27T12:47:10.327Z,79.48
2018-01-27T12:49:38.719Z,78.60
2018-01-27T12:52:07.062Z,78.11
2018-01-27T12:54:35.360Z,77.91
2018-01-27T12:57:04.296Z,78.45
2018-01-27T12:59:32.593Z,78.38
2018-01-27T13:02:00.872Z,79.62
2018-01-27T13:04:29.192Z,79.42
2018-01-27T13:06:57.512Z,79.00
2018-01-27T13:09:25.830Z,78.56
2018-01-27T13:11:55.200Z,78.66
2018-01-27T13:14:23.495Z,79.12
2018-01-27T13:16:51.787Z,79.34
2018-01-27T13:19:20.074Z,79.69
2018-01-27T13:21:48.371Z,80.17
2018-01-27T13:24:16.709Z,80.13
2018-01-27T13:26:44.976Z,79.17
2018-01-27T13:29:13.361Z,79.67
2018-01-27T13:31:41.639Z,80.00
2018-01-27T13:34:09.979Z,79.68
2018-01-27T13:36:38.390Z,79.14
2018-01-27T13:39:06.795Z,78.71
2018-01-27T13:41:35.120Z,78.74
2018-01-27T13:44:03.394Z,78.48
2018-01-27T13:46:31.709Z,78.14
2018-01-27T13:48:59.976Z,77.97
2018-01-27T13:51:28.291Z,78.86
2018-01-27T13:53:56.582Z,79.22
2018-01-27T13:56:24.894Z,79.67
2018-01-27T13:58:53.219Z,80.01
2018-01-27T14:01:22.095Z,80.28
2018-01-27T14:03:52.983Z,80.00
2018-01-27T14:06:21.386Z,79.51
2018-01-27T14:08:49.816Z,78.74
2018-01-27T14:11:18.115Z,78.81
2018-01-27T14:13:46.455Z,79.11
2018-01-27T14:16:14.779Z,79.24
2018-01-27T14:18:43.059Z,79.18
2018-01-27T14:21:11.375Z,79.68
2018-01-27T14:23:39.649Z,79.40
2018-01-27T14:26:08.029Z,78.62
2018-01-27T14:28:36.400Z,79.60
2018-01-27T14:31:04.699Z,80.38
2018-01-27T14:33:32.985Z,80.97
2018-01-27T14:36:01.280Z,81.42
2018-01-27T14:38:29.663Z,81.60
2018-01-27T14:40:58.863Z,81.14
2018-01-27T14:43:27.161Z,80.94
2018-01-27T14:45:55.470Z,81.11
2018-01-27T14:48:23.759Z,80.76
2018-01-27T14:50:52.460Z,81.54
2018-01-27T14:53:20.825Z,81.29
2018-01-27T14:55:49.071Z,81.18
2018-01-27T14:58:17.395Z,81.51
2018-01-27T15:00:45.712Z,82.24
2018-01-27T15:03:14.059Z,82.15
2018-01-27T15:05:42.397Z,81.78
2018-01-27T15:08:10.798Z,82.04
2018-01-27T15:10:39.271Z,82.22
2018-01-27T15:13:08.364Z,82.50
2018-01-27T15:15:36.680Z,82.31
2018-01-27T15:18:04.995Z,82.10
2018-01-27T15:20:33.323Z,81.53
2018-01-27T15:23:01.881Z,81.44
2018-01-27T15:25:30.180Z,81.81
2018-01-27T15:27:58.534Z,81.60
2018-01-27T15:30:26.868Z,82.22
2018-01-27T15:32:55.132Z,82.54
2018-01-27T15:35:23.428Z,82.01
2018-01-27T15:37:51.706Z,82.02
2018-01-27T15:40:20.135Z,81.95
2018-01-27T15:42:48.454Z,82.57
2018-01-27T15:45:16.741Z,83.02
2018-01-27T15:47:45.094Z,83.03
2018-01-27T15:50:20.452Z,83.35
2018-01-27T15:52:48.726Z,83.47
2018-01-27T15:55:17.054Z,83.34
2018-01-27T15:57:45.366Z,83.43
2018-01-27T16:00:13.643Z,82.84
2018-01-27T16:02:41.943Z,81.90
2018-01-27T16:05:11.100Z,81.20
2018-01-27T16:07:39.444Z,81.15
2018-01-27T16:10:07.763Z,81.41
2018-01-27T16:12:36.062Z,82.42
2018-01-27T16:15:04.322Z,82.76
2018-01-27T16:17:32.628Z,82.91
2018-01-27T16:20:00.926Z,82.79
2018-01-27T16:22:29.289Z,81.97
2018-01-27T16:24:58.230Z,81.14
2018-01-27T16:27:26.490Z,81.13
2018-01-27T16:29:54.810Z,81.08
2018-01-27T16:32:23.109Z,81.62
2018-01-27T16:34:51.391Z,81.68
2018-01-27T16:37:19.668Z,81.00
2018-01-27T16:39:47.950Z,81.02
2018-01-27T16:42:16.207Z,80.95
2018-01-27T16:44:44.503Z,81.19
2018-01-27T16:47:12.787Z,81.45
2018-01-27T16:49:41.982Z,80.69
2018-01-27T16:52:10.255Z,80.61
2018-01-27T16:54:38.569Z,80.58
2018-01-27T16:57:06.848Z,80.30
2018-01-27T16:59:35.145Z,79.94
2018-01-27T17:02:03.429Z,79.87
2018-01-27T17:04:31.696Z,79.86
2018-01-27T17:07:00.085Z,79.88
2018-01-27T17:09:28.328Z,79.61
2018-01-27T17:11:56.639Z,79.31
2018-01-27T17:14:24.945Z,79.65
2018-01-27T17:16:53.246Z,79.93
2018-01-27T17:19:21.535Z,79.87
2018-01-27T17:21:49.811Z,79.87
2018-01-27T17:24:18.126Z,79.94
2018-01-27T17:26:46.410Z,80.31
2018-01-27T17:29:14.723Z,79.93
2018-01-27T17:31:42.963Z,79.75
2018-01-27T17:34:11.271Z,80.01
2018-01-27T17:36:39.570Z,80.12
2018-01-27T17:39:07.876Z,79.83
2018-01-27T17:41:36.178Z,79.41
2018-01-27T17:44:04.457Z,78.97
2018-01-27T17:46:32.759Z,79.08
2018-01-27T17:49:01.027Z,79.98
2018-01-27T17:51:29.453Z,80.55
2018-01-27T17:53:57.736Z,80.43
2018-01-27T17:56:26.022Z,80.11
2018-01-27T17:58:54.287Z,80.48
2018-01-27T18:01:22.598Z,80.48
2018-01-27T18:03:50.859Z,81.00
2018-01-27T18:06:19.176Z,81.08
2018-01-27T18:08:47.468Z,80.88
2018-01-27T18:11:16.192Z,80.91
2018-01-27T18:13:44.471Z,80.59
2018-01-27T18:16:13.040Z,80.86
2018-01-27T18:18:41.334Z,80.79
2018-01-27T18:21:09.610Z,80.89
2018-01-27T18:23:37.902Z,80.97
2018-01-27T18:26:06.201Z,80.92
2018-01-27T18:28:34.488Z,80.67
2018-01-27T18:31:02.794Z,80.63
2018-01-27T18:33:31.074Z,80.52
2018-01-27T18:35:59.364Z,80.53
2018-01-27T18:38:27.632Z,79.80
2018-01-27T18:40:55.940Z,79.71
2018-01-27T18:43:24.722Z,79.53
2018-01-27T18:45:53.078Z,79.36
2018-01-27T18:48:21.350Z,79.47
2018-01-27T18:50:49.709Z,79.89
2018-01-27T18:53:17.961Z,79.97
2018-01-27T18:55:46.274Z,80.15
2018-01-27T18:58:14.567Z,80.37
2018-01-27T19:00:42.835Z,80.30
2018-01-27T19:03:11.127Z,80.14
2018-01-27T19:05:39.533Z,80.06
2018-01-27T19:08:07.838Z,80.00
2018-01-27T19:10:36.086Z,79.75
2018-01-27T19:13:04.363Z,80.03
2018-01-27T19:15:32.686Z,79.84
2018-01-27T19:18:01.050Z,79.84
2018-01-27T19:20:29.379Z,79.68
2018-01-27T19:22:57.649Z,79.26
2018-01-27T19:25:25.939Z,79.65
2018-01-27T19:27:54.558Z,79.56
2018-01-27T19:30:22.842Z,79.85
2018-01-27T19:32:51.155Z,79.74
2018-01-27T19:35:19.419Z,79.71
2018-01-27T19:37:47.768Z,79.54
2018-01-27T19:40:16.062Z,79.85
2018-01-27T19:42:44.367Z,80.10
2018-01-27T19:45:12.667Z,79.62
2018-01-27T19:47:41.046Z,79.46
2018-01-27T19:50:09.327Z,79.26
2018-01-27T19:52:37.628Z,79.46
2018-01-27T19:55:05.895Z,79.56
2018-01-27T19:57:34.537Z,79.19
2018-01-27T20:00:02.822Z,79.40
2018-01-27T20:02:31.226Z,79.62
2018-01-27T20:04:59.590Z,79.50
2018-01-27T20:07:27.871Z,79.50
2018-01-27T20:09:56.185Z,79.26
2018-01-27T20:12:24.479Z,79.31
2018-01-27T20:14:52.779Z,79.37
2018-01-27T20:17:21.052Z,79.53
2018-01-27T20:19:49.369Z,79.66
2018-01-27T20:22:17.646Z,80.00
2018-01-27T20:24:45.955Z,80.26
2018-01-27T20:27:14.253Z,80.02
2018-01-27T20:29:42.528Z,80.08
2018-01-27T20:32:10.836Z,80.23
2018-01-27T20:34:39.115Z,79.99
2018-01-27T20:37:07.412Z,79.74
2018-01-27T20:39:35.785Z,79.69
2018-01-27T20:42:04.074Z,79.58
2018-01-27T20:44:32.372Z,79.38
2018-01-27T20:47:00.796Z,78.89
2018-01-27T20:49:29.139Z,78.69
2018-01-27T20:51:57.449Z,78.87
2018-01-27T20:54:25.683Z,78.96
2018-01-27T20:56:54.020Z,78.65
2018-01-27T20:59:22.311Z,78.48
2018-01-27T21:01:50.633Z,78.86
2018-01-27T21:04:18.911Z,78.96
2018-01-27T21:06:47.202Z,79.05
2018-01-27T21:09:15.470Z,79.27
2018-01-27T21:11:43.796Z,79.05
2018-01-27T21:14:12.056Z,79.20
2018-01-27T21:16:40.363Z,79.12
2018-01-27T21:19:08.644Z,78.94
2018-01-27T21:21:36.923Z,78.74
2018-01-27T21:24:05.219Z,78.67
2018-01-27T21:26:33.490Z,78.50
2018-01-27T21:29:01.802Z,78.35
2018-01-27T21:31:30.267Z,78.59
2018-01-27T21:33:58.497Z,78.20
2018-01-27T21:36:26.787Z,78.42
2018-01-27T21:38:55.068Z,78.42
2018-01-27T21:41:23.351Z,77.93
2018-01-27T21:43:51.636Z,77.96
2018-01-27T21:46:19.947Z,77.62
2018-01-27T21:48:48.211Z,77.89
2018-01-27T21:51:16.543Z,78.07
2018-01-27T21:53:44.931Z,77.88
2018-01-27T21:56:13.283Z,77.96
2018-01-27T21:58:41.552Z,77.85
2018-01-27T22:01:09.863Z,77.57
2018-01-27T22:03:38.148Z,77.50
2018-01-27T22:06:06.867Z,77.83
2018-01-27T22:08:35.285Z,77.98
2018-01-27T22:11:03.550Z,77.93
2018-01-27T22:13:31.847Z,78.00
2018-01-27T22:16:00.938Z,78.25
2018-01-27T22:18:29.232Z,78.45
2018-01-27T22:20:57.494Z,78.71
2018-01-27T22:23:25.981Z,78.84
2018-01-27T22:25:54.219Z,78.87
2018-01-27T22:28:22.533Z,78.85
2018-01-27T22:30:50.807Z,79.00
2018-01-27T22:33:19.098Z,79.22
2018-01-27T22:35:47.409Z,79.25
2018-01-27T22:38:15.669Z,79.36
2018-01-27T22:40:43.977Z,79.60
2018-01-27T22:43:12.280Z,79.77
2018-01-27T22:45:40.627Z,79.89
2018-01-27T22:48:08.932Z,79.73
2018-01-27T22:50:37.244Z,79.78
2018-01-27T22:53:05.563Z,79.86
2018-01-27T22:55:33.849Z,79.78
2018-01-27T22:58:02.159Z,79.77
2018-01-27T23:00:30.424Z,80.59
2018-01-27T23:02:58.711Z,80.42
2018-01-27T23:05:26.998Z,80.39
2018-01-27T23:07:55.299Z,80.30
2018-01-27T23:10:23.578Z,80.44
2018-01-27T23:12:51.894Z,80.34
2018-01-27T23:15:20.762Z,80.19
2018-01-27T23:17:49.088Z,79.97
2018-01-27T23:20:18.080Z,79.73
2018-01-27T23:22:46.360Z,79.52
2018-01-27T23:25:14.695Z,79.64
2018-01-27T23:27:42.976Z,79.29
2018-01-27T23:30:11.269Z,79.09
2018-01-27T23:32:39.544Z,79.27
2018-01-27T23:35:07.827Z,79.29
2018-01-27T23:37:36.111Z,79.37
2018-01-27T23:40:06.031Z,79.42
2018-01-27T23:42:34.308Z,79.24
2018-01-27T23:45:02.618Z,79.24
2018-01-27T23:47:30.911Z,79.34
2018-01-27T23:49:59.254Z,79.16
2018-01-27T23:52:27.495Z,78.93
2018-01-27T23:54:55.797Z,78.69
2018-01-27T23:57:24.141Z,78.50
2018-01-27T23:59:52.479Z,78.50
